Yaak, Montana
Current Conditions -  °F | °C
As of 6:15 AM on Thursday 30 Oct 2014 (Local Time) from K65S Reporting Station
Overcast Overcast  
Wind Chill: 41°   Ceiling: 1400
Heat Index: 41°   Visibility: 10mi
Dew Point: 41°   Wind: 0mph
Humidity: 100%   Direction: NA
Pressure: 30.23"   Gusts: NA
Location:  48.7903°N, 115.78°W
Report Text: K65S 301215Z AUTO 00000KT 10SM BKN014 OVC020 05/05 A3023 RMK AO2
Loading
Personal Weather Stations






























Interactive Weather Map
Tropical Storm Tracking
New forecast layout! Learn more

10-Day Weather Forecast

Advertisements
Track Severe Weather on mobile